Mimoso do Sul, Brazil
Current Conditions -  °F | °C
As of 11:00 PM on Wednesday 28 Jan 2015 (Local Time) from SBCP Reporting Station
Clear Clear  
Wind Chill: 81°   Ceiling: Unl
Heat Index: 86°   Visibility: 6mi
Dew Point: 75°   Wind: 18mph
Humidity: 84%   Direction: 60°ENE
Pressure: 29.94"   Gusts: NA
Location:  21.06°S, 41.37°W
Report Text: SBCP 290100Z 06016KT CAVOK 27/24 Q1014
Loading
Personal Weather Stations






























Interactive Weather Map New forecast layout! Learn more

10-Day Weather Forecast

Advertisements
Track Severe Weather on mobile